Historyczne dane pomiarowe

Dodano dane terminowe – wersja testowa.

Dane z okresu 1951-2019

Wersja bazy: 1.34 [2019-03-16, lista zmian], aktualizacja planowana na 2019-04-15

Dane meteo z obszaru Polski uzyskane na podstawie danych udostępnionych przez Instytut Meteorologii i Gospodarki Wodnej – Państwowy Instytut Badawczy.

 

Wybierz Datę:    

       

TemperaturaWilgotnośćWiatrCiśnienieOpadyŚniegCzas trwania zjawisk
 Stacja t tx tn tng RH VA  wxwx mslp ppp RRR   cm mm wxwxwxwxwxwxwx
1994-08-14 14.6 18.9 12.4- 60.8- 5.0 3.3---- 0.0------------
1994-08-13 17.0 21.4 14.3- 76.5- 6.0 2.3---- 3.0------------
1994-08-12 16.7 19.2 14.7- 83.0- 8.0 2.7---- 0.0------------
1994-08-11 19.9 23.9 16.9- 83.8- 7.3 1.0---- 13.5------------
1994-08-10 19.5 25.0 12.9- 75.8- 3.0 1.0---- 0.0------------
1994-08-09 19.3 24.1 16.9- 89.3- 7.0 2.3---- 22.6------------
1994-08-08 20.1 28.7 16.7- 71.0- 7.0 1.0---- 27.5------------
1994-08-07 23.8 29.2 19.6- 57.5- 5.3 1.3---- 0.0------------
1994-08-06 23.6 32.6 15.9- 48.5- 1.3 0.7---- 0.0------------
1994-08-05 23.2 29.2 16.9- 62.0- 1.3 1.7---- 0.0------------
1994-08-04 22.1 28.1 16.3- 72.5- 4.7 1.0---- 0.0------------
1994-08-03 24.4 29.4 19.0- 62.8- 4.0 1.0---- 0.0------------
1994-08-02 26.6 32.6 17.5- 52.0- 0.7 0.0---- 0.0------------
1994-08-01 27.1 34.6 18.6- 51.5- 2.3 0.3---- 0.0------------
1994-07-31 27.6 33.6 19.0- 47.3- 1.7 1.3---- 0.0------------
1994-07-30 25.8 33.6 16.9- 47.8- 0.7 0.7---- 0.0------------
1994-07-29 26.1 33.2 16.5- 42.3- 1.0 0.3---- 0.0------------
1994-07-28 25.9 31.8 17.5- 48.8- 1.3 1.0---- 0.0------------
1994-07-27 25.3 31.2 15.9- 47.0- 2.0 0.3---- 0.0------------
1994-07-26 23.5 32.2 16.9- 50.3- 3.3 1.3---- 0.0------------
1994-07-25 22.6 30.4 16.5- 54.3- 3.7 0.7---- 0.0------------
1994-07-24 22.7 29.2 15.3- 53.0- 0.7 0.3---- 0.0------------
1994-07-23 20.9 26.0 11.8- 57.3- 0.0 1.0---- 0.0------------
1994-07-22 20.2 25.2 11.8- 56.3- 1.3 0.3---- 0.0------------
1994-07-21 18.7 23.9 10.0- 58.0- 0.0 1.3---- 0.0------------
1994-07-20 17.0 21.8 11.8- 64.3- 3.0 1.0---- 0.0------------
1994-07-19 18.4 22.9 14.5- 77.0- 6.3 1.0---- 0.0------------
1994-07-18 19.5 25.0 11.8- 85.8- 6.0 1.0---- 0.0------------
1994-07-17 21.0 27.1 15.3- 78.0- 5.0 1.0---- 0.5------------
1994-07-16 20.8 28.1 14.9- 75.3- 3.7 1.7---- 0.6------------
1994-07-15 19.8 26.4 13.3- 75.5- 2.0 1.3---- 0.0------------
1994-07-14 20.7 26.0 13.9- 67.5- 5.0 1.0---- 0.0------------
1994-07-13 20.8 24.5 14.9- 55.8- 3.7 1.3---- 0.0------------
1994-07-12 18.4 23.5 14.5- 76.0- 6.3 2.3---- 0.0------------
1994-07-11 16.0 20.8 12.4- 88.0- 6.3 1.7---- 0.0------------
1994-07-10 13.8 17.2 10.8- 85.8- 8.0 1.3---- 0.4------------
1994-07-09 14.7 18.8 11.4- 74.8- 7.3 2.0---- 7.8------------
1994-07-08 16.2 20.8 13.5- 74.5- 5.7 3.0---- 0.0------------
1994-07-07 17.3 24.3 11.8- 70.0- 6.7 1.0---- 2.4------------
1994-07-06 17.7 21.8 13.3- 64.8- 2.0 1.0---- 0.0------------
1994-07-05 19.5 25.0 13.5- 62.0- 4.3 0.7---- 2.1------------
1994-07-04 19.7 25.2 12.9- 59.5- 0.7 1.7---- 0.0------------
1994-07-03 19.1 24.1 10.4- 58.3- 0.7 1.3---- 0.0------------
1994-07-02 17.0 21.0 10.2- 68.5- 0.0 1.0---- 0.0------------
1994-07-01 20.0 22.9 15.4- 69.3- 4.7 2.3---- 0.0------------
1994-06-30 23.0 28.3 19.0- 84.3- 6.0 2.7---- 7.6------------
1994-06-29 23.0 28.1 16.5- 72.3- 1.7 0.3---- 0.0------------
1994-06-28 23.7 27.3 19.0- 72.3- 1.3 1.0---- 0.0------------
1994-06-27 23.5 29.1 17.9- 65.0- 3.7 0.7---- 0.0------------
1994-06-26 21.5 27.5 11.8- 49.8- 0.7 1.3---- 0.0------------
1994-06-25 15.3 20.1 7.5- 56.5- 0.0 1.3---- 0.0------------
1994-06-24 14.5 18.4 6.6- 51.8- 0.0 2.3---- 0.0------------
1994-06-23 16.7 25.0 14.9- 65.8- 5.0 4.3---- 0.0------------
1994-06-22 17.6 26.0 9.2- 67.0- 2.3 1.3---- 0.0------------
1994-06-21 14.7 17.9 8.9- 65.8- 2.3 0.7---- 0.0------------
1994-06-20 17.9 21.8 11.8- 64.8- 2.3 2.0---- 0.0------------
1994-06-19 16.7 25.0 10.8- 70.0- 4.7 1.7---- 0.0------------
1994-06-18 11.0 17.6 4.7- 72.5- 6.0 2.0---- 6.5------------
1994-06-17 10.8 13.9 8.3- 76.0- 8.0 3.0---- 0.1------------
1994-06-16 12.7 16.3 7.9- 70.8- 5.3 3.0---- 1.0------------
226.6 ms

 

Źródłem pochodzenia danych jest Instytut Meteorologii i Gospodarki Wodnej – Państwowy Instytut Badawczy. Dane Instytutu Meteorologii i Gospodarki Wodnej – Państwowego Instytutu Badawczego zostały przetworzone.

Dane źródłowe można odnaleźć na stronie https://dane.imgw.pl